createdAt,value
2022-12-01T00:00:10.133Z,996.5
2022-12-01T00:05:31.733Z,996.5
2022-12-01T00:10:42.124Z,996.5
2022-12-01T00:16:01.456Z,996.4
2022-12-01T00:21:20.583Z,996.5
2022-12-01T00:26:39.902Z,996.4
2022-12-01T00:31:59.550Z,996.4
2022-12-01T00:37:19.195Z,996.4
2022-12-01T00:42:38.721Z,996.3
2022-12-01T00:47:57.662Z,996.3
2022-12-01T00:53:16.969Z,996.3
2022-12-01T00:58:35.559Z,996.3
2022-12-01T01:03:54.760Z,996.3
2022-12-01T01:09:13.790Z,996.4
2022-12-01T01:14:33.248Z,996.3
2022-12-01T01:19:53.151Z,996.4
2022-12-01T01:25:12.240Z,996.4
2022-12-01T01:30:32.054Z,996.4
2022-12-01T01:35:51.363Z,996.4
2022-12-01T01:41:10.857Z,996.4
2022-12-01T01:46:30.057Z,996.4
2022-12-01T01:51:49.235Z,996.4
2022-12-01T01:57:08.734Z,996.4
2022-12-01T02:02:28.264Z,996.5
2022-12-01T02:07:47.382Z,996.4
2022-12-01T02:13:06.835Z,996.5
2022-12-01T02:18:25.913Z,996.4
2022-12-01T02:23:45.510Z,996.3
2022-12-01T02:29:05.311Z,996.3
2022-12-01T02:34:24.126Z,996.4
2022-12-01T02:39:43.583Z,996.3
2022-12-01T02:45:03.253Z,996.3
2022-12-01T02:50:22.722Z,996.2
2022-12-01T02:55:42.076Z,996.2
2022-12-01T03:01:01.769Z,996.2
2022-12-01T03:06:20.968Z,996.2
2022-12-01T03:11:39.876Z,996.2
2022-12-01T03:16:59.359Z,996.1
2022-12-01T03:22:18.314Z,996.1
2022-12-01T03:27:37.584Z,996.1
2022-12-01T03:32:57.237Z,996.1
2022-12-01T03:38:16.987Z,996
2022-12-01T03:43:36.392Z,996.1
2022-12-01T03:48:56.182Z,996.1
2022-12-01T03:54:16.122Z,996.1
2022-12-01T03:59:35.238Z,996.1
2022-12-01T04:04:54.414Z,996.1
2022-12-01T04:10:13.559Z,996.2
2022-12-01T04:15:33.421Z,996.1
2022-12-01T04:20:52.971Z,996.2
2022-12-01T04:26:15.682Z,996.1
2022-12-01T04:31:31.746Z,996
2022-12-01T04:36:51.193Z,996.1
2022-12-01T04:42:10.719Z,996.1
2022-12-01T04:47:29.901Z,996.1
2022-12-01T04:52:49.575Z,996.1
2022-12-01T04:58:08.590Z,996.1
2022-12-01T05:03:27.456Z,996.2
2022-12-01T05:08:47.161Z,996.3
2022-12-01T05:14:06.782Z,996.2
2022-12-01T05:19:25.975Z,996.3
2022-12-01T05:24:45.084Z,996.2
2022-12-01T05:30:04.386Z,996.3
2022-12-01T05:35:23.313Z,996.3
2022-12-01T05:41:07.195Z,996.3
2022-12-01T05:46:26.281Z,996.3
2022-12-01T05:51:45.060Z,996.3
2022-12-01T05:57:03.921Z,996.4
2022-12-01T06:02:23.380Z,996.4
2022-12-01T06:07:42.340Z,996.4
2022-12-01T06:13:01.380Z,996.4
2022-12-01T06:18:21.214Z,996.4
2022-12-01T06:23:48.747Z,996.4
2022-12-01T06:29:00.280Z,996.3
2022-12-01T06:34:19.352Z,996.3
2022-12-01T06:39:38.251Z,996.3
2022-12-01T06:44:57.763Z,996.4
2022-12-01T06:50:16.992Z,996.4
2022-12-01T06:55:36.698Z,996.4
2022-12-01T07:00:56.469Z,996.5
2022-12-01T07:06:16.018Z,996.6
2022-12-01T07:11:35.432Z,996.6
2022-12-01T07:16:55.182Z,996.6
2022-12-01T07:22:14.692Z,996.6
2022-12-01T07:27:33.804Z,996.6
2022-12-01T07:32:52.873Z,996.6
2022-12-01T07:38:11.958Z,996.7
2022-12-01T07:43:31.285Z,996.6
2022-12-01T07:48:50.595Z,996.7
2022-12-01T07:54:10.053Z,996.7
2022-12-01T07:59:29.317Z,996.7
2022-12-01T08:04:48.992Z,996.7
2022-12-01T08:10:08.676Z,996.7
2022-12-01T08:15:28.481Z,996.8
2022-12-01T08:20:47.309Z,996.8
2022-12-01T08:26:06.102Z,996.8
2022-12-01T08:31:25.684Z,996.8
2022-12-01T08:36:44.756Z,996.9
2022-12-01T08:42:04.590Z,996.9
2022-12-01T08:47:24.218Z,996.8
2022-12-01T08:58:02.725Z,996.9
2022-12-01T09:03:22.273Z,996.9
2022-12-01T09:08:41.225Z,996.9
2022-12-01T09:14:00.618Z,996.9
2022-12-01T09:19:24.459Z,996.9
2022-12-01T09:24:39.171Z,996.9
2022-12-01T09:29:58.903Z,996.9
2022-12-01T09:35:22.085Z,996.8
2022-12-01T09:40:36.747Z,996.8
2022-12-01T09:45:55.879Z,996.7
2022-12-01T09:51:14.979Z,996.7
2022-12-01T09:56:34.734Z,996.7
2022-12-01T10:01:54.364Z,996.6
2022-12-01T10:07:13.718Z,996.6
2022-12-01T10:12:33.335Z,996.5
2022-12-01T10:17:52.838Z,996.4
2022-12-01T10:23:11.687Z,996.4
2022-12-01T10:28:30.563Z,996.3
2022-12-01T10:33:49.878Z,996.2
2022-12-01T10:39:09.136Z,996.1
2022-12-01T10:44:28.778Z,996.1
2022-12-01T10:49:48.646Z,996.1
2022-12-01T10:55:07.818Z,996
2022-12-01T11:00:57.823Z,996
2022-12-01T11:05:46.055Z,996
2022-12-01T11:11:06.314Z,996
2022-12-01T11:16:25.478Z,995.8
2022-12-01T11:21:44.777Z,995.8
2022-12-01T11:27:03.622Z,995.8
2022-12-01T11:32:23.178Z,995.8
2022-12-01T11:37:42.079Z,995.7
2022-12-01T11:43:01.257Z,995.6
2022-12-01T11:48:20.312Z,995.6
2022-12-01T11:53:39.357Z,995.6
2022-12-01T11:58:59.036Z,995.5
2022-12-01T12:04:18.250Z,995.5
2022-12-01T12:09:41.830Z,995.5
2022-12-01T12:14:57.283Z,995.4
2022-12-01T12:20:16.820Z,995.4
2022-12-01T12:25:35.836Z,995.4
2022-12-01T12:30:55.471Z,995.4
2022-12-01T12:36:15.157Z,995.3
2022-12-01T12:41:33.983Z,995.2
2022-12-01T12:46:53.172Z,995.2
2022-12-01T12:52:12.917Z,995.2
2022-12-01T12:57:31.695Z,995.2
2022-12-01T13:02:51.004Z,995.2
2022-12-01T13:08:09.840Z,995.2
2022-12-01T13:13:28.668Z,995.2
2022-12-01T13:18:47.401Z,995.1
2022-12-01T13:24:07.004Z,995.1
2022-12-01T13:29:25.784Z,995.1
2022-12-01T13:34:45.292Z,995.2
2022-12-01T13:40:04.994Z,995.1
2022-12-01T13:45:23.943Z,995.2
2022-12-01T13:50:43.359Z,995.1
2022-12-01T13:56:03.095Z,995.1
2022-12-01T14:01:23.193Z,995
2022-12-01T14:06:41.728Z,995.1
2022-12-01T14:12:00.644Z,995
2022-12-01T14:17:19.736Z,995
2022-12-01T14:22:39.364Z,995.1
2022-12-01T14:27:58.872Z,995.1
2022-12-01T14:33:18.545Z,995
2022-12-01T14:38:38.330Z,994.9
2022-12-01T14:43:56.740Z,995
2022-12-01T14:49:16.158Z,995
2022-12-01T14:54:34.983Z,995
2022-12-01T14:59:54.545Z,995
2022-12-01T15:05:13.569Z,995
2022-12-01T15:10:32.767Z,995
2022-12-01T15:15:51.638Z,995
2022-12-01T15:21:11.068Z,995
2022-12-01T15:26:30.457Z,995
2022-12-01T15:31:49.454Z,994.9
2022-12-01T15:37:08.750Z,994.9
2022-12-01T15:42:28.253Z,995
2022-12-01T15:47:47.900Z,995
2022-12-01T15:53:07.601Z,995
2022-12-01T15:58:26.786Z,995
2022-12-01T16:03:45.783Z,995
2022-12-01T16:09:05.523Z,995
2022-12-01T16:14:24.340Z,995
2022-12-01T16:19:43.748Z,995
2022-12-01T16:25:02.791Z,995
2022-12-01T16:30:22.331Z,995.1
2022-12-01T16:35:41.443Z,995
2022-12-01T16:41:00.382Z,995
2022-12-01T16:46:19.606Z,995
2022-12-01T16:51:54.582Z,995
2022-12-01T16:56:58.691Z,994.9
2022-12-01T17:02:19.191Z,994.9
2022-12-01T17:07:38.815Z,995
2022-12-01T17:12:57.094Z,994.9
2022-12-01T17:18:16.343Z,994.9
2022-12-01T17:23:35.941Z,995
2022-12-01T17:28:55.315Z,995.1
2022-12-01T17:34:14.443Z,995
2022-12-01T17:39:33.518Z,995.2
2022-12-01T17:44:52.861Z,995.2
2022-12-01T17:50:12.049Z,995.2
2022-12-01T17:55:31.283Z,995.2
2022-12-01T18:00:50.814Z,995.2
2022-12-01T18:06:10.101Z,995.2
2022-12-01T18:11:29.201Z,995.2
2022-12-01T18:16:48.263Z,995.2
2022-12-01T18:22:07.733Z,995.2
2022-12-01T18:27:26.612Z,995.2
2022-12-01T18:32:45.504Z,995.2
2022-12-01T18:38:05.146Z,995.2
2022-12-01T18:43:24.628Z,995.2
2022-12-01T18:48:44.047Z,995.2
2022-12-01T18:54:03.263Z,995.2
2022-12-01T18:59:22.625Z,995.1
2022-12-01T19:04:42.049Z,995.1
2022-12-01T19:10:00.791Z,995
2022-12-01T19:15:27.833Z,995
2022-12-01T19:20:38.745Z,995
2022-12-01T19:25:58.177Z,995
2022-12-01T19:31:17.522Z,995
2022-12-01T19:36:36.881Z,995
2022-12-01T19:41:56.308Z,994.9
2022-12-01T19:47:19.122Z,994.9
2022-12-01T19:52:35.536Z,995
2022-12-01T19:57:54.478Z,994.9
2022-12-01T20:03:14.264Z,995
2022-12-01T20:08:35.835Z,995
2022-12-01T20:13:53.296Z,995
2022-12-01T20:19:12.618Z,994.9
2022-12-01T20:24:31.934Z,995
2022-12-01T20:29:50.799Z,995
2022-12-01T20:35:10.544Z,995
2022-12-01T20:40:29.409Z,995.1
2022-12-01T20:45:49.196Z,995
2022-12-01T20:51:08.421Z,995
2022-12-01T20:56:27.300Z,995.1
2022-12-01T21:01:46.910Z,995.1
2022-12-01T21:07:06.426Z,995
2022-12-01T21:12:25.839Z,995
2022-12-01T21:17:44.966Z,994.9
2022-12-01T21:23:03.821Z,994.8
2022-12-01T21:28:23.217Z,994.9
2022-12-01T21:33:42.133Z,994.9
2022-12-01T21:39:01.911Z,994.9
2022-12-01T21:44:21.086Z,994.8
2022-12-01T21:49:40.735Z,994.8
2022-12-01T21:55:00.091Z,994.7
2022-12-01T22:00:19.200Z,994.7
2022-12-01T22:06:01.391Z,994.6
2022-12-01T22:10:57.697Z,994.7
2022-12-01T22:16:17.179Z,994.6
2022-12-01T22:21:36.800Z,994.7
2022-12-01T22:26:55.405Z,994.7
2022-12-01T22:32:15.153Z,994.7
2022-12-01T22:37:35.196Z,994.7
2022-12-01T22:42:54.504Z,994.6
2022-12-01T22:48:14.248Z,994.7
2022-12-01T22:53:33.448Z,994.7
2022-12-01T22:58:52.901Z,994.6
2022-12-01T23:04:13.368Z,994.6
2022-12-01T23:09:31.930Z,994.6
2022-12-01T23:14:51.165Z,994.6
2022-12-01T23:20:10.765Z,994.6
2022-12-01T23:20:35.823Z,994.6
2022-12-01T23:25:55.244Z,994.6
2022-12-01T23:31:14.397Z,994.6
2022-12-01T23:36:33.597Z,994.5
2022-12-01T23:41:52.787Z,994.4
2022-12-01T23:47:12.503Z,994.5
2022-12-01T23:52:32.108Z,994.4
2022-12-01T23:57:51.067Z,994.4
